createdAt,value
2023-02-28T00:03:43.900Z,6.70
2023-02-28T00:08:45.672Z,7.25
2023-02-28T00:13:48.683Z,7.38
2023-02-28T00:18:51.415Z,7.10
2023-02-28T00:23:53.068Z,7.65
2023-02-28T00:28:54.741Z,6.63
2023-02-28T00:33:57.959Z,7.30
2023-02-28T00:38:59.567Z,7.80
2023-02-28T00:44:03.309Z,7.97
2023-02-28T00:49:07.471Z,7.43
2023-02-28T00:54:10.979Z,8.03
2023-02-28T00:59:16.903Z,6.47
2023-02-28T01:04:20.291Z,7.77
2023-02-28T01:09:21.934Z,6.50
2023-02-28T01:14:23.551Z,6.80
2023-02-28T01:19:25.889Z,6.93
2023-02-28T01:24:27.549Z,6.70
2023-02-28T01:29:29.168Z,6.60
2023-02-28T01:34:30.821Z,6.70
2023-02-28T01:39:32.465Z,6.33
2023-02-28T01:45:01.107Z,6.13
2023-02-28T01:50:08.585Z,6.53
2023-02-28T01:55:12.204Z,7.50
2023-02-28T02:00:20.680Z,8.02
2023-02-28T02:05:28.177Z,7.85
2023-02-28T02:10:37.374Z,6.80
2023-02-28T02:16:13.815Z,8.47
2023-02-28T02:21:36.668Z,8.32
2023-02-28T02:27:09.746Z,7.30
2023-02-28T02:32:39.133Z,6.33
2023-02-28T02:37:58.262Z,7.43
2023-02-28T02:43:07.985Z,6.40
2023-02-28T02:48:14.165Z,6.97
2023-02-28T02:53:20.056Z,6.67
2023-02-28T02:58:28.223Z,7.63
2023-02-28T03:09:58.522Z,7.43
2023-02-28T03:15:25.712Z,7.13
2023-02-28T03:20:55.787Z,7.65
2023-02-28T03:26:05.245Z,6.90
2023-02-28T03:31:18.912Z,6.73
2023-02-28T03:36:24.058Z,7.30
2023-02-28T03:41:37.161Z,6.47
2023-02-28T03:46:44.867Z,7.87
2023-02-28T03:51:48.316Z,8.00
2023-02-28T03:56:56.508Z,7.80
2023-02-28T04:01:59.691Z,6.88
2023-02-28T04:07:09.353Z,7.47
2023-02-28T04:12:11.069Z,8.37
2023-02-28T04:17:12.671Z,7.20
2023-02-28T04:22:14.729Z,8.03
2023-02-28T04:27:16.857Z,7.95
2023-02-28T04:32:18.746Z,8.20
2023-02-28T04:37:20.630Z,8.45
2023-02-28T04:42:22.324Z,9.40
2023-02-28T04:47:23.921Z,9.30
2023-02-28T04:52:25.547Z,9.70
2023-02-28T04:57:27.153Z,8.67
2023-02-28T05:02:28.880Z,10.67
2023-02-28T05:07:30.592Z,8.87
2023-02-28T05:12:32.189Z,7.87
2023-02-28T05:17:33.800Z,8.95
2023-02-28T05:22:35.464Z,8.80
2023-02-28T05:27:37.111Z,9.80
2023-02-28T05:32:39.953Z,9.83
2023-02-28T05:37:41.654Z,10.27
2023-02-28T05:42:43.325Z,10.37
2023-02-28T05:47:44.980Z,10.83
2023-02-28T05:52:51.295Z,11.73
2023-02-28T05:57:52.922Z,9.53
2023-02-28T06:02:57.317Z,11.00
2023-02-28T06:07:58.936Z,12.37
2023-02-28T06:13:03.485Z,11.00
2023-02-28T06:18:05.389Z,12.77
2023-02-28T06:23:06.993Z,12.57
2023-02-28T06:28:08.646Z,12.77
2023-02-28T06:33:10.282Z,13.17
2023-02-28T06:38:11.931Z,13.47
2023-02-28T06:43:14.500Z,12.45
2023-02-28T06:48:16.131Z,10.68
2023-02-28T06:53:17.785Z,10.65
2023-02-28T06:58:20.028Z,10.20
2023-02-28T07:03:21.763Z,10.23
2023-02-28T07:08:24.711Z,9.80
2023-02-28T07:13:26.405Z,9.75
2023-02-28T07:18:28.852Z,10.43
2023-02-28T07:23:30.801Z,8.95
2023-02-28T07:28:32.436Z,9.57
2023-02-28T07:33:35.103Z,11.68
2023-02-28T07:38:38.444Z,10.60
2023-02-28T07:43:40.124Z,10.05
2023-02-28T07:48:42.249Z,8.93
2023-02-28T07:53:43.937Z,9.45
2023-02-28T07:58:45.581Z,9.50
2023-02-28T08:03:47.251Z,9.80
2023-02-28T08:08:49.841Z,10.02
2023-02-28T08:13:51.878Z,9.93
2023-02-28T08:18:54.099Z,9.65
2023-02-28T08:23:57.808Z,9.65
2023-02-28T08:29:01.434Z,9.82
2023-02-28T08:34:21.410Z,9.75
2023-02-28T08:39:23.042Z,7.57
2023-02-28T08:44:24.655Z,7.10
2023-02-28T08:49:26.307Z,7.90
2023-02-28T08:54:31.699Z,8.00
2023-02-28T08:59:33.684Z,7.53
2023-02-28T09:04:35.328Z,8.85
2023-02-28T09:09:36.935Z,8.13
2023-02-28T09:14:38.514Z,7.18
2023-02-28T09:19:40.423Z,8.57
2023-02-28T09:24:42.309Z,7.88
2023-02-28T09:29:44.025Z,6.72
2023-02-28T09:34:45.645Z,6.70
2023-02-28T09:39:47.263Z,5.80
2023-02-28T09:44:51.378Z,6.05
2023-02-28T09:49:53.653Z,6.35
2023-02-28T09:54:55.938Z,5.88
2023-02-28T10:00:45.007Z,6.78
2023-02-28T10:05:55.549Z,7.13
2023-02-28T10:11:05.424Z,7.22
2023-02-28T10:16:21.158Z,7.72
2023-02-28T10:21:29.375Z,6.88
2023-02-28T10:26:33.900Z,6.82
2023-02-28T10:31:36.125Z,7.95
2023-02-28T10:36:37.812Z,6.68
2023-02-28T10:41:43.710Z,6.70
2023-02-28T10:46:46.484Z,6.88
2023-02-28T10:51:52.630Z,7.63
2023-02-28T10:57:18.776Z,7.22
2023-02-28T11:07:53.001Z,9.40
2023-02-28T11:13:00.576Z,7.70
2023-02-28T11:18:24.484Z,7.18
2023-02-28T11:23:29.954Z,8.07
2023-02-28T11:28:38.032Z,7.85
2023-02-28T11:33:55.423Z,7.68
2023-02-28T11:39:05.572Z,7.65
2023-02-28T11:44:37.910Z,8.43
2023-02-28T11:50:07.040Z,7.30
2023-02-28T11:55:32.847Z,7.13
2023-02-28T12:00:59.754Z,7.25
2023-02-28T12:06:18.734Z,6.85
2023-02-28T12:11:41.879Z,7.85
2023-02-28T12:17:08.289Z,8.27
2023-02-28T12:22:20.235Z,8.05
2023-02-28T12:27:27.805Z,8.05
2023-02-28T12:32:47.980Z,8.13
2023-02-28T12:38:03.076Z,7.68
2023-02-28T12:43:08.612Z,7.47
2023-02-28T12:48:15.744Z,7.28
2023-02-28T12:53:47.770Z,7.20
2023-02-28T12:58:55.518Z,7.38
2023-02-28T13:04:48.610Z,8.18
2023-02-28T13:10:01.789Z,7.18
2023-02-28T13:15:16.124Z,7.82
2023-02-28T13:20:24.481Z,8.00
2023-02-28T13:25:26.041Z,8.15
2023-02-28T13:31:00.650Z,8.57
2023-02-28T13:36:15.354Z,8.90
2023-02-28T13:41:32.473Z,7.07
2023-02-28T13:46:58.146Z,7.97
2023-02-28T13:52:09.698Z,9.00
2023-02-28T13:57:50.294Z,10.82
2023-02-28T14:03:04.437Z,10.38
2023-02-28T14:08:24.015Z,10.15
2023-02-28T14:13:28.683Z,9.30
2023-02-28T14:18:36.379Z,10.50
2023-02-28T14:23:56.773Z,10.65
2023-02-28T14:29:04.855Z,9.05
2023-02-28T14:34:32.920Z,10.32
2023-02-28T14:39:35.530Z,10.38
2023-02-28T14:44:37.323Z,10.43
2023-02-28T14:49:46.631Z,10.05
2023-02-28T14:54:54.884Z,10.60
2023-02-28T15:00:13.225Z,10.38
2023-02-28T15:05:17.641Z,9.68
2023-02-28T15:10:24.195Z,9.93
2023-02-28T15:16:02.051Z,13.68
2023-02-28T15:21:08.775Z,10.38
2023-02-28T15:26:18.161Z,9.13
2023-02-28T15:31:24.600Z,10.40
2023-02-28T15:36:31.027Z,10.77
2023-02-28T15:41:41.674Z,10.35
2023-02-28T15:46:54.516Z,10.50
2023-02-28T15:52:00.362Z,11.30
2023-02-28T15:57:09.527Z,10.60
2023-02-28T16:02:11.219Z,13.73
2023-02-28T16:07:14.062Z,13.00
2023-02-28T16:12:15.710Z,10.88
2023-02-28T16:17:29.358Z,12.25
2023-02-28T16:22:31.073Z,11.23
2023-02-28T16:27:36.546Z,11.60
2023-02-28T16:32:38.214Z,12.27
2023-02-28T16:37:39.876Z,12.60
2023-02-28T16:42:42.034Z,12.02
2023-02-28T16:47:43.702Z,11.80
2023-02-28T16:52:45.511Z,12.32
2023-02-28T16:57:56.194Z,13.40
2023-02-28T17:02:58.495Z,12.90
2023-02-28T17:08:00.203Z,12.23
2023-02-28T17:13:14.153Z,12.38
2023-02-28T17:18:19.944Z,12.82
2023-02-28T17:23:21.568Z,11.23
2023-02-28T17:28:23.211Z,13.45
2023-02-28T17:33:24.927Z,11.88
2023-02-28T17:38:26.547Z,12.65
2023-02-28T17:43:28.353Z,12.73
2023-02-28T17:48:31.389Z,12.70
2023-02-28T17:53:33.607Z,13.35
2023-02-28T17:58:35.259Z,14.48
2023-02-28T18:03:36.918Z,15.13
2023-02-28T18:08:38.549Z,15.32
2023-02-28T18:13:40.163Z,15.88
2023-02-28T18:18:42.344Z,15.35
2023-02-28T18:23:52.087Z,15.40
2023-02-28T18:28:53.671Z,16.38
2023-02-28T18:33:55.283Z,16.67
2023-02-28T18:38:56.896Z,15.57
2023-02-28T18:44:07.731Z,17.60
2023-02-28T18:49:15.630Z,17.67
2023-02-28T18:54:17.702Z,18.90
2023-02-28T18:59:19.311Z,18.50
2023-02-28T19:04:21.033Z,18.60
2023-02-28T19:09:22.861Z,19.52
2023-02-28T19:14:24.511Z,18.42
2023-02-28T19:19:26.209Z,21.53
2023-02-28T19:24:27.811Z,18.92
2023-02-28T19:29:29.411Z,19.57
2023-02-28T19:34:31.047Z,20.97
2023-02-28T19:39:41.125Z,19.42
2023-02-28T19:44:43.241Z,21.02
2023-02-28T19:49:44.906Z,19.90
2023-02-28T19:54:46.509Z,21.48
2023-02-28T19:59:48.308Z,19.77
2023-02-28T20:04:51.125Z,22.07
2023-02-28T20:09:52.989Z,23.30
2023-02-28T20:14:58.202Z,23.67
2023-02-28T20:19:59.903Z,22.37
2023-02-28T20:25:01.546Z,22.73
2023-02-28T20:30:04.299Z,23.20
2023-02-28T20:35:08.671Z,24.53
2023-02-28T20:40:10.959Z,24.03
2023-02-28T20:45:12.600Z,23.98
2023-02-28T20:50:14.206Z,26.00
2023-02-28T20:55:15.917Z,27.43
2023-02-28T21:00:20.605Z,26.17
2023-02-28T21:05:22.223Z,25.83
2023-02-28T21:10:23.832Z,22.67
2023-02-28T21:15:25.927Z,23.40
2023-02-28T21:20:28.127Z,24.17
2023-02-28T21:25:29.743Z,24.37
2023-02-28T21:30:31.433Z,21.88
2023-02-28T21:35:33.084Z,24.05
2023-02-28T21:40:34.771Z,26.17
2023-02-28T21:45:36.456Z,25.08
2023-02-28T21:50:38.072Z,24.60
2023-02-28T21:55:39.710Z,25.57
2023-02-28T22:00:46.030Z,26.13
2023-02-28T22:05:47.619Z,24.25
2023-02-28T22:10:49.230Z,28.10
2023-02-28T22:15:50.850Z,24.83
2023-02-28T22:20:55.905Z,24.57
2023-02-28T22:26:00.823Z,24.93
2023-02-28T22:31:13.341Z,25.87
2023-02-28T22:36:16.709Z,28.57
2023-02-28T22:41:20.514Z,25.75
2023-02-28T22:46:24.151Z,24.60
2023-02-28T22:51:27.102Z,23.80
2023-02-28T22:56:30.590Z,25.45
2023-02-28T23:01:34.500Z,23.13
2023-02-28T23:06:42.047Z,24.50
2023-02-28T23:11:47.427Z,24.30
2023-02-28T23:16:51.704Z,21.97
2023-02-28T23:21:53.903Z,22.73
2023-02-28T23:26:58.686Z,23.00
2023-02-28T23:32:00.449Z,23.73
2023-02-28T23:37:02.708Z,25.80
2023-02-28T23:42:04.337Z,23.30
2023-02-28T23:47:06.476Z,25.03
2023-02-28T23:52:08.257Z,29.17
2023-02-28T23:57:09.919Z,23.65
